createdAt,value
2022-07-29T04:31:00.856Z,16.30
2022-07-29T04:32:00.678Z,16.30
2022-07-29T04:33:00.668Z,16.30
2022-07-29T04:34:00.667Z,16.27
2022-07-29T04:35:00.644Z,16.31
2022-07-29T04:36:00.625Z,16.34
2022-07-29T04:37:00.614Z,16.37
2022-07-29T04:38:00.596Z,16.38
2022-07-29T04:39:00.596Z,16.38
2022-07-29T04:40:00.575Z,16.40
2022-07-29T04:41:00.565Z,16.40
2022-07-29T04:42:00.543Z,16.40
2022-07-29T04:43:00.599Z,16.42
2022-07-29T04:44:07.604Z,16.44
2022-07-29T04:45:01.292Z,16.49
2022-07-29T04:46:00.509Z,16.53
2022-07-29T04:47:00.485Z,16.55
2022-07-29T04:48:00.467Z,16.56
2022-07-29T04:49:00.612Z,16.59
2022-07-29T04:50:00.444Z,16.60
2022-07-29T04:51:00.443Z,16.60
2022-07-29T04:52:00.470Z,16.62
2022-07-29T04:53:00.418Z,16.63
2022-07-29T04:54:00.421Z,16.63
2022-07-29T04:55:00.387Z,16.63
2022-07-29T04:56:00.391Z,16.63
2022-07-29T04:57:00.356Z,16.63
2022-07-29T04:58:00.335Z,16.65
2022-07-29T04:59:00.336Z,16.68
2022-07-29T05:00:00.325Z,16.67
2022-07-29T05:01:00.308Z,16.68
2022-07-29T05:02:00.344Z,16.71
2022-07-29T05:03:00.406Z,16.80
2022-07-29T05:04:00.801Z,16.89
2022-07-29T05:05:00.254Z,17.07
2022-07-29T05:06:00.235Z,17.18
2022-07-29T05:07:00.227Z,17.36
2022-07-29T05:08:00.216Z,17.44
2022-07-29T05:09:00.217Z,17.44
2022-07-29T05:10:00.212Z,17.48
2022-07-29T05:11:11.663Z,17.54
2022-07-29T05:12:01.164Z,17.59
2022-07-29T05:13:00.145Z,17.63
2022-07-29T05:14:00.185Z,17.63
2022-07-29T05:15:00.136Z,17.62
2022-07-29T05:16:00.187Z,17.64
2022-07-29T05:17:00.093Z,17.66
2022-07-29T05:18:00.085Z,17.69
2022-07-29T05:19:00.054Z,17.67
2022-07-29T05:20:00.061Z,17.67
2022-07-29T05:21:00.045Z,17.73
2022-07-29T05:22:00.025Z,17.79
2022-07-29T05:23:00.004Z,17.79
2022-07-29T05:23:59.985Z,17.78
2022-07-29T05:25:01.461Z,17.74
2022-07-29T05:25:59.967Z,17.71
2022-07-29T05:26:59.954Z,17.62
2022-07-29T05:27:59.975Z,17.46
2022-07-29T05:28:59.924Z,17.35
2022-07-29T05:29:59.956Z,17.25
2022-07-29T05:30:59.971Z,17.15
2022-07-29T05:31:59.874Z,17.11
2022-07-29T05:32:59.871Z,17.06
2022-07-29T05:33:59.854Z,16.99
2022-07-29T05:34:59.860Z,16.99
2022-07-29T05:36:00.747Z,17.06
2022-07-29T05:36:59.812Z,17.15
2022-07-29T05:37:59.803Z,17.28
2022-07-29T05:38:59.793Z,17.23
2022-07-29T05:39:59.793Z,17.17
2022-07-29T05:40:59.783Z,17.10
2022-07-29T05:41:59.744Z,17.00
2022-07-29T05:42:59.746Z,16.96
2022-07-29T05:43:59.722Z,16.93
2022-07-29T05:44:59.714Z,16.98
2022-07-29T05:45:59.736Z,17.06
2022-07-29T05:46:59.677Z,17.22
2022-07-29T05:47:59.684Z,17.38
2022-07-29T05:48:59.692Z,17.50
2022-07-29T05:49:59.654Z,17.54
2022-07-29T05:50:59.653Z,17.59
2022-07-29T05:51:59.626Z,17.59
2022-07-29T05:52:59.593Z,17.51
2022-07-29T05:54:00.584Z,17.48
2022-07-29T05:54:59.574Z,17.62
2022-07-29T05:55:59.556Z,17.70
2022-07-29T05:56:59.591Z,17.87
2022-07-29T05:57:59.602Z,17.97
2022-07-29T05:58:59.514Z,18.10
2022-07-29T05:59:59.524Z,18.24
2022-07-29T06:00:59.534Z,18.33
2022-07-29T06:01:59.548Z,18.40
2022-07-29T06:02:59.483Z,18.36
2022-07-29T06:03:59.493Z,18.39
2022-07-29T06:04:59.492Z,18.47
2022-07-29T06:05:59.422Z,18.50
2022-07-29T06:06:59.403Z,18.52
2022-07-29T06:07:59.404Z,18.49
2022-07-29T06:08:59.383Z,18.49
2022-07-29T06:10:00.383Z,18.42
2022-07-29T06:10:59.355Z,18.33
2022-07-29T06:11:59.424Z,18.29
2022-07-29T06:12:59.324Z,18.22
2022-07-29T06:13:59.326Z,18.19
2022-07-29T06:14:59.314Z,18.21
2022-07-29T06:15:59.356Z,18.33
2022-07-29T06:16:59.274Z,18.46
2022-07-29T06:18:01.501Z,18.47
2022-07-29T06:18:59.252Z,18.39
2022-07-29T06:19:59.246Z,18.27
2022-07-29T06:20:59.257Z,18.24
2022-07-29T06:21:59.212Z,18.21
2022-07-29T06:22:59.247Z,18.13
2022-07-29T06:23:59.186Z,18.07
2022-07-29T06:24:59.186Z,18.12
2022-07-29T06:25:59.155Z,18.15
2022-07-29T06:26:59.209Z,18.17
2022-07-29T06:27:59.132Z,18.15
2022-07-29T06:28:59.112Z,18.10
2022-07-29T06:29:59.131Z,18.09
2022-07-29T06:30:59.186Z,18.04
2022-07-29T06:31:59.092Z,18.02
2022-07-29T06:32:59.269Z,18.03
2022-07-29T06:33:59.117Z,18.03
2022-07-29T06:35:24.464Z,18.04
2022-07-29T06:36:00.032Z,18.10
2022-07-29T06:36:59.005Z,18.18
2022-07-29T06:37:59.842Z,18.27
2022-07-29T06:38:58.983Z,18.28
2022-07-29T06:39:59.634Z,18.28
2022-07-29T06:40:58.953Z,18.28
2022-07-29T06:41:58.954Z,18.28
2022-07-29T06:42:58.931Z,18.29
2022-07-29T06:43:58.924Z,18.31
2022-07-29T06:44:58.913Z,18.39
2022-07-29T06:45:58.948Z,18.46
2022-07-29T06:46:58.888Z,18.46
2022-07-29T06:47:58.873Z,18.46
2022-07-29T06:48:58.892Z,18.46
2022-07-29T06:49:58.862Z,18.50
2022-07-29T06:50:58.823Z,18.55
2022-07-29T06:51:58.812Z,18.58
2022-07-29T06:52:58.825Z,18.58
2022-07-29T06:54:02.850Z,18.57
2022-07-29T06:54:58.773Z,18.54
2022-07-29T06:55:58.781Z,18.54
2022-07-29T06:56:58.742Z,18.54
2022-07-29T06:57:58.735Z,18.58
2022-07-29T06:58:58.732Z,18.55
2022-07-29T06:59:58.710Z,18.59
2022-07-29T07:00:58.734Z,18.64
2022-07-29T07:01:58.732Z,18.65
2022-07-29T07:02:58.663Z,18.62
2022-07-29T07:03:58.660Z,18.59
2022-07-29T07:04:58.642Z,18.65
2022-07-29T07:05:58.642Z,18.65
2022-07-29T07:06:58.612Z,18.59
2022-07-29T07:07:58.646Z,18.52
2022-07-29T07:08:58.589Z,18.47
2022-07-29T07:09:58.581Z,18.43
2022-07-29T07:10:58.582Z,18.37
2022-07-29T07:11:58.572Z,18.34
2022-07-29T07:12:58.532Z,18.34
2022-07-29T07:14:03.041Z,18.34
2022-07-29T07:14:59.534Z,18.36
2022-07-29T07:15:58.525Z,18.33
2022-07-29T07:16:58.514Z,18.31
2022-07-29T07:17:58.470Z,18.28
2022-07-29T07:18:58.456Z,18.27
2022-07-29T07:19:58.442Z,18.24
2022-07-29T07:20:58.431Z,18.22
2022-07-29T07:21:58.411Z,18.19
2022-07-29T07:22:58.400Z,18.17
2022-07-29T07:23:58.396Z,18.13
2022-07-29T07:24:58.373Z,18.10
2022-07-29T07:25:58.373Z,18.10
2022-07-29T07:26:58.341Z,18.10
2022-07-29T07:27:58.337Z,18.07
2022-07-29T07:28:58.332Z,18.07
2022-07-29T07:29:58.319Z,18.07
2022-07-29T07:30:58.302Z,18.09
2022-07-29T07:32:00.912Z,18.10
2022-07-29T07:32:58.261Z,18.15
2022-07-29T07:33:58.266Z,18.18
2022-07-29T07:34:58.241Z,18.21
2022-07-29T07:35:58.242Z,18.18
2022-07-29T07:36:58.216Z,18.21
2022-07-29T07:37:58.202Z,18.24
2022-07-29T07:38:58.188Z,18.28
2022-07-29T07:39:58.184Z,18.31
2022-07-29T07:40:58.171Z,18.37
2022-07-29T07:41:58.151Z,18.43
2022-07-29T07:42:58.137Z,18.47
2022-07-29T07:43:58.123Z,18.50
2022-07-29T07:45:13.109Z,18.57
2022-07-29T07:45:59.188Z,18.58
2022-07-29T07:46:58.090Z,18.58
2022-07-29T07:47:59.072Z,18.65
2022-07-29T07:48:58.082Z,18.62
2022-07-29T07:49:58.053Z,18.65
2022-07-29T07:50:58.051Z,18.65
2022-07-29T07:51:58.011Z,18.67
2022-07-29T07:52:58.003Z,18.65
2022-07-29T07:53:57.993Z,18.64
2022-07-29T07:54:57.981Z,18.64
2022-07-29T07:56:10.354Z,18.65
2022-07-29T07:56:58.956Z,18.70
2022-07-29T07:57:57.932Z,18.76
2022-07-29T07:58:57.931Z,18.79
2022-07-29T07:59:57.903Z,18.80
2022-07-29T08:00:57.984Z,18.77
2022-07-29T08:01:58.011Z,18.73
2022-07-29T08:02:57.911Z,18.70
2022-07-29T08:03:57.851Z,18.65
2022-07-29T08:04:57.846Z,18.64
2022-07-29T08:05:57.842Z,18.59
2022-07-29T08:06:57.837Z,18.61
2022-07-29T08:07:57.802Z,18.58
2022-07-29T08:09:19.492Z,18.55
2022-07-29T08:09:58.772Z,18.54
2022-07-29T08:10:57.772Z,18.46
2022-07-29T08:11:57.793Z,18.42
2022-07-29T08:12:57.756Z,18.40
2022-07-29T08:13:57.727Z,18.37
2022-07-29T08:14:57.712Z,18.28
2022-07-29T08:15:57.712Z,18.25
2022-07-29T08:16:57.705Z,18.19
2022-07-29T08:17:57.670Z,18.10
2022-07-29T08:18:57.664Z,18.10
2022-07-29T08:19:57.652Z,18.10
2022-07-29T08:20:57.669Z,18.02
2022-07-29T08:21:57.641Z,18.02
2022-07-29T08:22:57.622Z,18.00
2022-07-29T08:24:00.662Z,17.97
2022-07-29T08:24:58.581Z,17.94
2022-07-29T08:25:57.586Z,17.92
2022-07-29T08:26:57.554Z,17.94
2022-07-29T08:27:57.543Z,17.89
2022-07-29T08:28:57.547Z,17.88
2022-07-29T08:29:57.514Z,17.92
2022-07-29T08:30:57.512Z,17.92
2022-07-29T08:31:57.525Z,17.94
2022-07-29T08:32:57.519Z,17.95
2022-07-29T08:33:57.512Z,17.99
2022-07-29T08:34:57.452Z,18.03
2022-07-29T08:35:57.462Z,18.09
2022-07-29T08:36:57.422Z,18.12
2022-07-29T08:37:57.409Z,18.18
2022-07-29T08:38:57.402Z,18.25
2022-07-29T08:39:57.403Z,18.31
2022-07-29T08:40:57.422Z,18.40
2022-07-29T08:41:57.764Z,18.46
2022-07-29T08:42:57.340Z,18.58
2022-07-29T08:43:57.322Z,18.70
2022-07-29T08:44:57.312Z,18.79
2022-07-29T08:45:57.349Z,18.82
2022-07-29T08:46:57.285Z,18.90
2022-07-29T08:47:57.272Z,18.97
2022-07-29T08:48:57.286Z,19.08
2022-07-29T08:49:57.244Z,19.15
2022-07-29T08:50:57.255Z,19.17
2022-07-29T08:51:57.519Z,19.18
2022-07-29T08:52:59.867Z,19.21
2022-07-29T08:53:57.193Z,19.25
2022-07-29T08:54:57.181Z,19.25
2022-07-29T08:55:57.183Z,19.29
2022-07-29T08:56:57.172Z,19.28
2022-07-29T08:57:57.419Z,19.35
2022-07-29T08:58:57.133Z,19.38
2022-07-29T08:59:57.123Z,19.36
2022-07-29T09:00:58.150Z,19.36
2022-07-29T09:01:57.343Z,19.39
2022-07-29T09:02:57.081Z,19.32
2022-07-29T09:03:57.092Z,19.39
2022-07-29T09:04:57.053Z,19.42
2022-07-29T09:05:57.042Z,19.39
2022-07-29T09:06:57.023Z,19.39
2022-07-29T09:07:57.012Z,19.42
2022-07-29T09:08:57.001Z,19.43
2022-07-29T09:09:56.980Z,19.47
2022-07-29T09:10:56.984Z,19.53
2022-07-29T09:11:57.417Z,19.58
2022-07-29T09:12:56.946Z,19.63
2022-07-29T09:13:56.924Z,19.68
2022-07-29T09:14:56.935Z,19.66
2022-07-29T09:15:56.942Z,19.68
2022-07-29T09:16:56.961Z,19.69
2022-07-29T09:17:56.874Z,19.61
2022-07-29T09:18:56.872Z,19.57
2022-07-29T09:19:56.852Z,19.54
2022-07-29T09:20:56.889Z,19.46
2022-07-29T09:21:56.832Z,19.33
2022-07-29T09:22:56.836Z,19.24
2022-07-29T09:23:56.794Z,19.31
2022-07-29T09:24:56.801Z,19.38
2022-07-29T09:25:56.783Z,19.40
2022-07-29T09:26:56.916Z,19.42
2022-07-29T09:27:56.747Z,19.48
2022-07-29T09:28:56.754Z,19.40
2022-07-29T09:29:56.735Z,19.46
2022-07-29T09:30:56.731Z,19.57
2022-07-29T09:31:56.750Z,19.73
2022-07-29T09:32:56.694Z,19.84
2022-07-29T09:33:56.692Z,19.88
2022-07-29T09:34:58.486Z,19.98
2022-07-29T09:35:57.148Z,19.97
2022-07-29T09:36:57.095Z,19.90
2022-07-29T09:37:56.614Z,19.78
2022-07-29T09:38:56.604Z,19.76
2022-07-29T09:39:56.583Z,19.80
2022-07-29T09:40:56.583Z,19.83
2022-07-29T09:41:56.574Z,19.80
2022-07-29T09:42:56.561Z,19.70
2022-07-29T09:43:56.534Z,19.68
2022-07-29T09:44:56.525Z,19.76
2022-07-29T09:45:56.513Z,19.78
2022-07-29T09:46:56.858Z,19.76
2022-07-29T09:47:56.511Z,19.70
2022-07-29T09:48:56.528Z,19.69
2022-07-29T09:49:56.455Z,19.65
2022-07-29T09:50:56.463Z,19.55
2022-07-29T09:51:56.444Z,19.58
2022-07-29T09:52:56.422Z,19.68
2022-07-29T09:53:56.414Z,19.80
2022-07-29T09:54:56.395Z,19.93
2022-07-29T09:55:56.384Z,20.00
2022-07-29T09:56:56.639Z,20.05
2022-07-29T09:57:56.447Z,20.10
2022-07-29T09:58:56.334Z,20.02
2022-07-29T09:59:56.325Z,19.91
2022-07-29T10:00:56.360Z,19.93
2022-07-29T10:01:56.570Z,19.97
2022-07-29T10:02:56.314Z,20.08
2022-07-29T10:03:56.274Z,20.09
2022-07-29T10:04:56.256Z,20.08
2022-07-29T10:05:56.257Z,20.05
2022-07-29T10:07:03.539Z,20.00
2022-07-29T10:07:57.584Z,19.95
2022-07-29T10:08:56.224Z,19.80
2022-07-29T10:09:56.223Z,19.70
2022-07-29T10:10:56.197Z,19.61
2022-07-29T10:11:56.185Z,19.54
2022-07-29T10:12:56.155Z,19.42
2022-07-29T10:13:56.144Z,19.31
2022-07-29T10:14:56.125Z,19.32
2022-07-29T10:15:56.170Z,19.39
2022-07-29T10:16:56.104Z,19.47
2022-07-29T10:17:56.085Z,19.55
2022-07-29T10:18:56.075Z,19.57
2022-07-29T10:19:56.068Z,19.60
2022-07-29T10:20:56.046Z,19.70
2022-07-29T10:21:58.126Z,19.66
2022-07-29T10:22:56.024Z,19.65
2022-07-29T10:23:56.015Z,19.66
2022-07-29T10:24:57.001Z,19.66
2022-07-29T10:25:55.996Z,19.66
2022-07-29T10:26:55.986Z,19.63
2022-07-29T10:27:55.991Z,19.61
2022-07-29T10:28:55.947Z,19.60
2022-07-29T10:29:55.937Z,19.55
2022-07-29T10:30:55.947Z,19.61
2022-07-29T10:31:56.181Z,19.70
2022-07-29T10:32:55.921Z,19.78
2022-07-29T10:33:55.901Z,19.84
2022-07-29T10:34:55.865Z,19.88
2022-07-29T10:35:55.865Z,19.86
2022-07-29T10:36:55.856Z,19.78
2022-07-29T10:37:55.836Z,19.78
2022-07-29T10:38:55.815Z,19.73
2022-07-29T10:39:55.806Z,19.72
2022-07-29T10:40:57.275Z,19.72
2022-07-29T10:41:55.969Z,19.73
2022-07-29T10:42:55.768Z,19.72
2022-07-29T10:44:52.188Z,19.69
2022-07-29T10:45:52.620Z,19.68
2022-07-29T10:46:52.303Z,19.69
2022-07-29T10:47:52.149Z,19.68
2022-07-29T10:48:52.157Z,19.63
2022-07-29T10:49:52.127Z,19.57
2022-07-29T10:50:52.118Z,19.55
2022-07-29T10:51:52.109Z,19.50
2022-07-29T10:52:52.078Z,19.47
2022-07-29T10:53:52.072Z,19.36
2022-07-29T10:54:52.049Z,19.32
2022-07-29T10:55:52.049Z,19.33
2022-07-29T10:56:52.055Z,19.32
2022-07-29T10:57:53.926Z,19.32
2022-07-29T10:58:52.723Z,19.33
2022-07-29T10:59:53.034Z,19.36
2022-07-29T11:00:51.972Z,19.38
2022-07-29T11:01:52.709Z,19.32
2022-07-29T11:02:52.041Z,19.24
2022-07-29T11:03:52.341Z,19.24
2022-07-29T11:04:51.927Z,19.24
2022-07-29T11:05:51.917Z,19.24
2022-07-29T11:06:51.909Z,19.21
2022-07-29T11:07:51.888Z,19.23
2022-07-29T11:08:51.870Z,19.24
2022-07-29T11:09:51.873Z,19.28
2022-07-29T11:10:51.849Z,19.28
2022-07-29T11:11:51.863Z,19.23
2022-07-29T11:12:51.821Z,19.18
2022-07-29T11:13:52.374Z,19.14
2022-07-29T11:14:51.789Z,19.06
2022-07-29T11:15:51.778Z,18.98
2022-07-29T11:16:51.779Z,18.90
2022-07-29T11:17:53.064Z,18.80
2022-07-29T11:18:51.775Z,18.77
2022-07-29T11:19:52.271Z,18.76
2022-07-29T11:20:51.718Z,18.73
2022-07-29T11:21:55.079Z,18.70
2022-07-29T11:22:51.678Z,18.64
2022-07-29T11:23:51.679Z,18.58
2022-07-29T11:24:51.697Z,18.50
2022-07-29T11:25:52.389Z,18.47
2022-07-29T11:26:51.649Z,18.44
2022-07-29T11:27:51.629Z,18.42
2022-07-29T11:28:51.608Z,18.39
2022-07-29T11:29:51.603Z,18.29
2022-07-29T11:30:51.579Z,18.25
2022-07-29T11:31:51.568Z,18.24
2022-07-29T11:32:51.568Z,18.22
2022-07-29T11:33:56.125Z,18.19
2022-07-29T11:34:52.526Z,18.12
2022-07-29T11:36:00.765Z,18.03
2022-07-29T11:36:52.507Z,18.02
2022-07-29T11:37:52.780Z,18.02
2022-07-29T11:38:52.469Z,17.97
2022-07-29T11:39:51.531Z,17.92
2022-07-29T11:40:51.447Z,17.92
2022-07-29T11:41:51.438Z,17.94
2022-07-29T11:42:51.888Z,17.95
2022-07-29T11:43:51.408Z,18.00
2022-07-29T11:44:51.394Z,17.95
2022-07-29T11:45:51.413Z,17.99
2022-07-29T11:46:51.367Z,18.03
2022-07-29T11:47:51.431Z,18.03
2022-07-29T11:48:52.061Z,18.07
2022-07-29T11:49:51.329Z,18.12
2022-07-29T11:50:51.308Z,18.18
2022-07-29T11:51:51.307Z,18.22
2022-07-29T11:52:51.307Z,18.27
2022-07-29T11:53:52.461Z,18.27
2022-07-29T11:54:58.389Z,18.25
2022-07-29T11:55:52.248Z,18.29
2022-07-29T11:56:51.230Z,18.33
2022-07-29T11:58:03.760Z,18.37
2022-07-29T11:58:52.208Z,18.39
2022-07-29T11:59:51.196Z,18.40
2022-07-29T12:00:51.179Z,18.44
2022-07-29T12:01:51.169Z,18.43
2022-07-29T12:02:51.159Z,18.46
2022-07-29T12:03:51.220Z,18.49
2022-07-29T12:04:51.149Z,18.49
2022-07-29T12:06:52.098Z,18.55
2022-07-29T12:07:03.218Z,18.50
2022-07-29T12:07:51.100Z,18.58
2022-07-29T12:08:51.070Z,18.65
2022-07-29T12:09:51.067Z,18.73
2022-07-29T12:10:51.047Z,18.80
2022-07-29T12:11:51.040Z,18.90
2022-07-29T12:12:51.054Z,19.02
2022-07-29T12:13:51.018Z,19.08
2022-07-29T12:14:50.988Z,19.18
2022-07-29T12:15:51.017Z,19.29
2022-07-29T12:16:51.054Z,19.38
2022-07-29T12:17:50.978Z,19.46
2022-07-29T12:18:50.939Z,19.55
2022-07-29T12:19:51.038Z,19.60
2022-07-29T12:20:50.919Z,19.65
2022-07-29T12:21:56.293Z,19.68
2022-07-29T12:22:51.909Z,19.83
2022-07-29T12:23:50.879Z,19.95
2022-07-29T12:24:50.861Z,20.09
2022-07-29T12:25:51.860Z,20.25
2022-07-29T12:26:50.840Z,20.43
2022-07-29T12:27:50.843Z,20.54
2022-07-29T12:28:50.809Z,20.69
2022-07-29T12:29:50.800Z,20.81
2022-07-29T12:30:51.624Z,20.84
2022-07-29T12:31:50.808Z,20.83
2022-07-29T12:32:50.761Z,20.90
2022-07-29T12:33:50.772Z,20.91
2022-07-29T12:34:50.733Z,20.91
2022-07-29T12:36:06.263Z,20.98
2022-07-29T12:36:51.710Z,21.13
2022-07-29T12:37:50.702Z,21.17
2022-07-29T12:38:50.693Z,21.20
2022-07-29T12:39:50.715Z,21.20
2022-07-29T12:40:50.652Z,21.21
2022-07-29T12:41:50.653Z,21.27
2022-07-29T12:42:50.631Z,21.34
2022-07-29T12:43:50.622Z,21.44
2022-07-29T12:44:50.598Z,21.53
2022-07-29T12:45:50.591Z,21.53
2022-07-29T12:46:50.613Z,21.45
2022-07-29T12:47:50.561Z,21.48
2022-07-29T12:48:50.635Z,21.53
2022-07-29T12:49:50.546Z,21.53
2022-07-29T12:50:50.520Z,21.57
2022-07-29T12:51:50.510Z,21.61
2022-07-29T12:52:50.491Z,21.67
2022-07-29T12:53:50.499Z,21.74
2022-07-29T12:54:50.501Z,21.71
2022-07-29T12:55:50.451Z,21.75
2022-07-29T12:56:50.441Z,21.64
2022-07-29T12:57:50.433Z,21.63
2022-07-29T12:58:51.457Z,21.63
2022-07-29T12:59:50.402Z,21.57
2022-07-29T13:00:50.432Z,21.69
2022-07-29T13:01:50.573Z,21.82
2022-07-29T13:02:50.405Z,22.04
2022-07-29T13:03:56.917Z,22.19
2022-07-29T13:04:51.333Z,22.27
2022-07-29T13:05:50.332Z,22.38
2022-07-29T13:06:51.071Z,22.44
2022-07-29T13:07:55.111Z,22.59
2022-07-29T13:08:51.293Z,22.89
2022-07-29T13:09:50.273Z,23.22
2022-07-29T13:10:50.253Z,24.01
2022-07-29T13:11:50.250Z,24.54
2022-07-29T13:12:50.232Z,25.17
2022-07-29T13:13:50.234Z,25.34
2022-07-29T13:14:51.204Z,25.77
2022-07-29T13:15:50.194Z,26.12
2022-07-29T13:16:50.212Z,26.72
2022-07-29T13:17:50.172Z,27.10
2022-07-29T13:18:50.164Z,27.57
2022-07-29T13:19:50.143Z,27.06
2022-07-29T13:20:50.131Z,27.48
2022-07-29T13:21:50.123Z,27.92
2022-07-29T13:22:50.103Z,28.10
2022-07-29T13:23:50.104Z,27.26
2022-07-29T13:24:50.074Z,27.05
2022-07-29T13:25:50.065Z,26.68
2022-07-29T13:26:50.053Z,26.32
2022-07-29T13:27:50.054Z,26.36
2022-07-29T13:28:50.035Z,26.92
2022-07-29T13:29:50.016Z,27.42
2022-07-29T13:30:50.026Z,27.94
2022-07-29T13:31:49.998Z,27.91
2022-07-29T13:32:49.976Z,28.17
2022-07-29T13:33:49.975Z,28.17
2022-07-29T13:34:49.957Z,28.13
2022-07-29T13:35:49.946Z,28.23
2022-07-29T13:36:49.926Z,28.11
2022-07-29T13:37:49.917Z,27.74
2022-07-29T13:38:49.918Z,27.91
2022-07-29T13:39:51.292Z,28.22
2022-07-29T13:40:49.877Z,28.26
2022-07-29T13:41:49.867Z,28.41
2022-07-29T13:42:49.858Z,28.33
2022-07-29T13:43:50.125Z,28.13
2022-07-29T13:44:49.848Z,28.28
2022-07-29T13:45:49.855Z,28.22
2022-07-29T13:46:49.800Z,27.86
2022-07-29T13:47:49.788Z,27.38
2022-07-29T13:48:49.788Z,27.54
2022-07-29T13:49:49.787Z,27.95
2022-07-29T13:50:49.748Z,27.91
2022-07-29T13:51:49.770Z,28.23
2022-07-29T13:52:49.770Z,28.69
2022-07-29T13:53:49.719Z,28.72
2022-07-29T13:54:49.709Z,28.70
2022-07-29T13:55:49.689Z,28.68
2022-07-29T13:56:49.679Z,28.78
2022-07-29T13:57:49.672Z,28.75
2022-07-29T13:58:49.660Z,28.77
2022-07-29T13:59:53.920Z,28.75
2022-07-29T14:00:49.717Z,28.80
2022-07-29T14:01:49.620Z,28.97
2022-07-29T14:02:49.601Z,28.88
2022-07-29T14:03:49.590Z,28.35
2022-07-29T14:04:49.626Z,28.54
2022-07-29T14:05:49.571Z,28.36
2022-07-29T14:06:49.552Z,28.13
2022-07-29T14:07:49.541Z,27.58
2022-07-29T14:08:49.521Z,27.11
2022-07-29T14:09:49.531Z,26.74
2022-07-29T14:10:49.503Z,26.39
2022-07-29T14:11:49.493Z,26.05
2022-07-29T14:12:49.509Z,25.74
2022-07-29T14:13:49.471Z,25.64
2022-07-29T14:14:49.470Z,25.64
2022-07-29T14:15:49.442Z,25.67
2022-07-29T14:16:52.359Z,25.68
2022-07-29T14:17:49.412Z,25.62
2022-07-29T14:18:49.462Z,25.44
2022-07-29T14:19:49.401Z,25.43
2022-07-29T14:20:49.373Z,25.49
2022-07-29T14:21:49.363Z,25.54
2022-07-29T14:22:49.343Z,25.53
2022-07-29T14:23:49.347Z,25.61
2022-07-29T14:24:49.335Z,25.67
2022-07-29T14:25:49.609Z,25.79
2022-07-29T14:26:49.327Z,26.06
2022-07-29T14:27:49.283Z,26.18
2022-07-29T14:28:49.275Z,26.32
2022-07-29T14:29:49.281Z,26.50
2022-07-29T14:30:49.246Z,26.65
2022-07-29T14:31:49.295Z,27.04
2022-07-29T14:32:49.223Z,27.73
2022-07-29T14:33:49.483Z,28.21
2022-07-29T14:34:49.213Z,28.43
2022-07-29T14:35:49.186Z,28.48
2022-07-29T14:36:49.184Z,28.43
2022-07-29T14:37:49.165Z,28.25
2022-07-29T14:38:49.147Z,28.26
2022-07-29T14:39:49.146Z,27.89
2022-07-29T14:40:50.865Z,28.01
2022-07-29T14:41:49.114Z,27.82
2022-07-29T14:42:49.094Z,27.91
2022-07-29T14:43:49.086Z,28.04
2022-07-29T14:44:49.076Z,28.10
2022-07-29T14:45:49.122Z,28.13
2022-07-29T14:46:49.483Z,28.16
2022-07-29T14:47:49.039Z,28.48
2022-07-29T14:48:49.056Z,28.46
2022-07-29T14:49:49.025Z,28.50
2022-07-29T14:50:48.996Z,28.46
2022-07-29T14:51:48.987Z,28.68
2022-07-29T14:52:48.967Z,28.84
2022-07-29T14:53:48.957Z,28.81
2022-07-29T14:54:48.957Z,29.07
2022-07-29T14:55:48.938Z,29.26
2022-07-29T14:56:48.918Z,29.49
2022-07-29T14:57:48.909Z,29.55
2022-07-29T14:58:51.713Z,29.35
2022-07-29T14:59:48.899Z,29.20
2022-07-29T15:00:48.944Z,29.10
2022-07-29T15:01:48.859Z,29.13
2022-07-29T15:03:04.216Z,28.72
2022-07-29T15:03:49.837Z,28.63
2022-07-29T15:04:48.821Z,28.32
2022-07-29T15:05:48.819Z,27.95
2022-07-29T15:06:48.791Z,28.19
2022-07-29T15:07:48.779Z,28.36
2022-07-29T15:08:48.767Z,28.69
2022-07-29T15:09:49.776Z,29.03
2022-07-29T15:10:48.760Z,29.08
2022-07-29T15:11:48.733Z,29.01
2022-07-29T15:12:48.720Z,29.00
2022-07-29T15:13:48.712Z,29.03
2022-07-29T15:14:48.694Z,29.45
2022-07-29T15:15:48.698Z,29.84
2022-07-29T15:16:48.719Z,30.38
2022-07-29T15:17:48.661Z,30.62
2022-07-29T15:18:48.641Z,30.87
2022-07-29T15:19:48.634Z,30.87
2022-07-29T15:20:48.621Z,30.57
2022-07-29T15:21:49.195Z,30.46
2022-07-29T15:22:48.592Z,30.45
2022-07-29T15:23:48.585Z,30.45
2022-07-29T15:24:48.573Z,30.36
2022-07-29T15:25:48.572Z,30.36
2022-07-29T15:26:48.544Z,30.36
2022-07-29T15:27:49.702Z,30.43
2022-07-29T15:28:48.523Z,30.49
2022-07-29T15:29:48.513Z,30.47
2022-07-29T15:30:48.512Z,30.54
2022-07-29T15:31:48.605Z,30.45
2022-07-29T15:32:48.473Z,30.30
2022-07-29T15:33:49.466Z,30.27
2022-07-29T15:34:48.453Z,30.26
2022-07-29T15:35:48.445Z,30.08
2022-07-29T15:36:53.078Z,30.15
2022-07-29T15:37:49.684Z,30.23
2022-07-29T15:38:48.395Z,30.14
2022-07-29T15:39:48.384Z,30.07
2022-07-29T15:40:48.382Z,29.77
2022-07-29T15:41:48.366Z,29.71
2022-07-29T15:42:48.343Z,29.66
2022-07-29T15:43:48.334Z,29.75
2022-07-29T15:44:48.316Z,30.12
2022-07-29T15:45:48.338Z,30.03
2022-07-29T15:46:48.295Z,29.87
2022-07-29T15:47:48.286Z,29.75
2022-07-29T15:48:48.422Z,29.78
2022-07-29T15:49:49.464Z,29.78
2022-07-29T15:50:48.256Z,29.70
2022-07-29T15:51:48.237Z,29.60
2022-07-29T15:52:48.216Z,29.47
2022-07-29T15:53:53.226Z,29.44
2022-07-29T15:54:49.188Z,29.44
2022-07-29T15:55:48.197Z,29.43
2022-07-29T15:56:48.187Z,29.40
2022-07-29T15:57:48.157Z,29.20
2022-07-29T15:58:48.215Z,28.90
2022-07-29T15:59:48.136Z,28.75
2022-07-29T16:00:48.188Z,28.65
2022-07-29T16:01:48.109Z,28.58
2022-07-29T16:02:48.089Z,28.48
2022-07-29T16:03:48.116Z,28.56
2022-07-29T16:04:48.067Z,28.65
2022-07-29T16:05:48.068Z,28.87
2022-07-29T16:06:48.039Z,29.15
2022-07-29T16:07:48.037Z,29.43
2022-07-29T16:08:48.019Z,29.23
2022-07-29T16:09:52.843Z,29.22
2022-07-29T16:10:49.009Z,29.08
2022-07-29T16:11:47.989Z,28.54
2022-07-29T16:12:47.970Z,27.79
2022-07-29T16:13:47.961Z,27.16
2022-07-29T16:14:48.008Z,26.59
2022-07-29T16:16:02.366Z,26.21
2022-07-29T16:16:48.954Z,25.93
2022-07-29T16:17:47.910Z,25.75
2022-07-29T16:18:47.894Z,25.62
2022-07-29T16:19:47.881Z,25.44
2022-07-29T16:20:47.888Z,25.28
2022-07-29T16:21:47.871Z,25.15
2022-07-29T16:22:47.843Z,25.00
2022-07-29T16:23:47.832Z,24.88
2022-07-29T16:24:47.820Z,24.79
2022-07-29T16:25:59.800Z,24.73
2022-07-29T16:26:48.802Z,24.64
2022-07-29T16:27:47.781Z,24.52
2022-07-29T16:28:47.773Z,24.42
2022-07-29T16:29:47.752Z,24.38
2022-07-29T16:30:47.743Z,24.35
2022-07-29T16:31:47.816Z,24.32
2022-07-29T16:32:47.712Z,24.34
2022-07-29T16:33:55.118Z,24.50
2022-07-29T16:34:48.692Z,24.82
2022-07-29T16:35:47.681Z,25.01
2022-07-29T16:36:48.052Z,25.38
2022-07-29T16:37:47.654Z,25.47
2022-07-29T16:38:47.677Z,25.46
2022-07-29T16:39:47.633Z,25.65
2022-07-29T16:40:47.613Z,26.20
2022-07-29T16:41:47.615Z,26.46
2022-07-29T16:42:47.831Z,26.54
2022-07-29T16:43:47.574Z,26.89
2022-07-29T16:44:47.565Z,27.17
2022-07-29T16:45:47.572Z,27.21
2022-07-29T16:46:47.544Z,27.23
2022-07-29T16:47:47.525Z,27.41
2022-07-29T16:48:47.561Z,27.61
2022-07-29T16:49:47.497Z,27.74
2022-07-29T16:50:47.486Z,27.85
2022-07-29T16:51:47.485Z,27.85
2022-07-29T16:52:47.468Z,27.70
2022-07-29T16:53:49.809Z,27.62
2022-07-29T16:54:47.434Z,27.70
2022-07-29T16:55:47.417Z,27.82
2022-07-29T16:56:47.415Z,27.98
2022-07-29T16:57:47.386Z,28.01
2022-07-29T16:58:47.384Z,27.96
2022-07-29T16:59:47.367Z,27.92
2022-07-29T17:00:47.391Z,27.94
2022-07-29T17:01:47.385Z,27.91
2022-07-29T17:02:47.336Z,27.84
2022-07-29T17:03:47.326Z,27.86
2022-07-29T17:04:47.317Z,27.91
2022-07-29T17:05:52.599Z,27.66
2022-07-29T17:06:48.298Z,27.57
2022-07-29T17:07:47.268Z,27.50
2022-07-29T17:08:47.258Z,27.32
2022-07-29T17:09:47.248Z,26.92
2022-07-29T17:10:47.242Z,26.58
2022-07-29T17:11:53.358Z,26.22
2022-07-29T17:12:48.208Z,25.98
2022-07-29T17:13:47.196Z,25.79
2022-07-29T17:14:47.178Z,25.67
2022-07-29T17:15:47.172Z,25.52
2022-07-29T17:17:02.496Z,25.30
2022-07-29T17:17:56.540Z,25.13
2022-07-29T17:18:48.130Z,24.97
2022-07-29T17:19:47.110Z,24.83
2022-07-29T17:20:47.107Z,24.68
2022-07-29T17:21:49.053Z,24.57
2022-07-29T17:22:47.080Z,24.53
2022-07-29T17:23:47.060Z,24.41